Portada
METAR-TAF:

METAR-TAF

Aeropuertos :

Aeropuerto de Badajoz

Badajoz, España

latitud: 38-53N, longitud: 006-49W, altitud: 185 m

Observación

El informe se hizo hace 4 horas y 33 minutos, a las 20:00 UTC
Viento 7 kt del suroeste
Temperatura 12°C
Humedad 88%
Presión 1018 hPa
Visibilidad 10 km o más
Escasas nubes a una altura de 3900 ft

METAR: LEBZ 242000Z 22007KT 9999 FEW039 12/10 Q1018

Hora: 01:33 (00:33 UTC)

Pronóstico

El informe se hizo hace 1 hora y 33 minutos, a las 23:00 UTC
Pronóstico válido del 25 a las 00 UTC al 25 a las 24 UTC
Viento 8 kt del oeste-suroeste
Visibilidad 10 km o más
Escasas nubes a una altura de 4000 ft
Temporalmente
del 25 a las 04 UTC al 25 a las 11 UTC
Visibilidad: 4000 m
Cielo nuboso a una altura de 800 ft
lluvia, llovizna, neblina

TAF: LEBZ 242300Z 2500/2524 24008KT 9999 FEW040 TX18/2514Z TN12/2507Z TEMPO 2504/2511 4000 RADZ BR BKN008

Observaciones y pronósticos meteorológicos de más de 4000 aeropuertos (mensajes METAR y TAF).

Los puntos amarillos y rojos representan las estaciones disponibles.

Ponga el ratón en el punto deseado para ver el nombre de la estación.

Haga clic para ver las observaciones y los pronósticos meteorológicos.

Para cambiar el mapa : haga clic en los botones verdes con una cruz de color negro para hacer un zoom, en el botón verde con un guión para alejar o en las flechas verdes para mapas adyacentes.


METAR-TAF: